Time;durP1;ratioP1;P1;durP2;ratioP2;P2;SDS_P1;SDS_P2;PMS_P1;PMS_P2;Temp;Humidity;BMP_temperature;BMP_pressure;BME280_temperature;BME280_humidity;BME280_pressure;Samples;Min_cycle;Max_cycle;Signal;HPM_P1;HPM_P2
2023/12/08 00:01:40;;;;;;;;;;;;;;;5.63;100.00;98862.47;4947373;28;19929;-85
2023/12/08 00:04:05;;;;;;;;;;;;;;;5.63;100.00;98880.88;4963592;28;20385;-84
2023/12/08 00:06:31;;;;;;;;;;;;;;;5.62;100.00;98885.28;4963615;28;19922;-84
2023/12/08 00:08:56;;;;;;;;;;;;;;;5.59;100.00;98888.03;4946627;28;20432;-84
2023/12/08 00:11:21;;;;;;;;;;;;;;;5.61;100.00;98885.34;4944950;28;19918;-84
2023/12/08 00:13:47;;;;;;;;;;;;;;;5.61;100.00;98880.94;4962143;28;20441;-88
2023/12/08 00:16:12;;;;;;;;;;;;;;;5.63;100.00;98881.75;4945590;28;19940;-87
2023/12/08 00:18:37;;;;;;;;;;;;;;;5.63;100.00;98871.22;4964337;28;20068;-82
2023/12/08 00:21:02;;;;;;;;;;;;;;;5.61;100.00;98878.31;4963318;28;19929;-85
2023/12/08 00:23:28;;;;;;;;;;;;;;;5.63;100.00;98872.97;4945793;28;19981;-84
2023/12/08 00:25:53;;;;;;;;;;;;;;;5.62;100.00;98881.81;4963328;28;19919;-83
2023/12/08 00:28:18;;;;;;;;;;;;;;;5.61;100.00;98880.09;4963131;28;19929;-83
2023/12/08 00:30:44;;;;;;;;;;;;;;;5.62;100.00;98871.28;4944000;28;20060;-86
2023/12/08 00:33:09;;;;;;;;;;;;;;;5.62;100.00;98866.88;4963863;28;19926;-87
2023/12/08 00:35:35;;;;;;;;;;;;;;;5.62;100.00;98861.63;4962087;28;20017;-83
2023/12/08 00:38:00;;;;;;;;;;;;;;;5.64;100.00;98859.78;4946134;28;19930;-85
2023/12/08 00:40:25;;;;;;;;;;;;;;;5.64;100.00;98854.53;4962493;28;19926;-85
2023/12/08 00:42:51;;;;;;;;;;;;;;;5.63;100.00;98855.47;4963379;28;19930;-83
2023/12/08 00:45:16;;;;;;;;;;;;;;;5.64;100.00;98862.41;4945122;28;20266;-88
2023/12/08 00:47:41;;;;;;;;;;;;;;;5.63;100.00;98862.47;4963042;28;19977;-84
2023/12/08 00:50:07;;;;;;;;;;;;;;;5.62;100.00;98856.38;4963496;28;20013;-86
2023/12/08 00:52:33;;;;;;;;;;;;;;;5.63;100.00;98851.97;4946386;28;19957;-85
2023/12/08 00:54:58;;;;;;;;;;;;;;;5.62;100.00;98845.84;4962894;28;20362;-84
2023/12/08 00:57:23;;;;;;;;;;;;;;;5.64;100.00;98843.16;4963213;28;20383;-85
2023/12/08 00:59:49;;;;;;;;;;;;;;;5.64;100.00;98840.53;4944267;28;20437;-85
2023/12/08 01:02:16;;;;;;;;;;;;;;;5.66;100.00;98845.75;4963043;28;19945;-85
2023/12/08 01:04:41;;;;;;;;;;;;;;;5.65;100.00;98850.16;4963412;28;19926;-85
2023/12/08 01:07:08;;;;;;;;;;;;;;;5.63;100.00;98842.31;4963114;28;20015;-85
2023/12/08 01:09:36;;;;;;;;;;;;;;;5.66;100.00;98853.63;4961731;28;19985;-86
2023/12/08 01:12:06;;;;;;;;;;;;;;;5.67;100.00;98855.34;4963481;28;20019;-82
2023/12/08 01:14:31;;;;;;;;;;;;;;;5.63;100.00;98851.97;4961528;28;20344;-85
2023/12/08 06:14:23;;;;;;;;;;;;;;;5.87;100.00;98810.75;5581931;23;19981;-82
2023/12/08 06:16:48;;;;;;;;;;;;;;;5.89;100.00;98813.28;4948313;28;19977;-82
2023/12/08 06:19:13;;;;;;;;;;;;;;;5.89;100.00;98814.19;4965681;28;19968;-82
2023/12/08 06:21:38;;;;;;;;;;;;;;;5.90;100.00;98813.25;4964665;28;20005;-81
2023/12/08 06:24:04;;;;;;;;;;;;;;;5.89;100.00;98821.19;4966151;28;19922;-81
2023/12/08 06:26:29;;;;;;;;;;;;;;;5.91;100.00;98817.59;4965640;28;19957;-81
2023/12/08 06:28:54;;;;;;;;;;;;;;;5.89;100.00;98822.06;4963984;28;19926;-81
2023/12/08 06:31:19;;;;;;;;;;;;;;;5.91;100.00;98824.63;4965703;28;20048;-83
2023/12/08 06:33:45;;;;;;;;;;;;;;;5.90;100.00;98823.75;4948481;28;19954;-81
2023/12/08 06:36:10;;;;;;;;;;;;;;;5.92;100.00;98813.19;4948209;28;19925;-81
2023/12/08 06:38:38;;;;;;;;;;;;;;;5.92;100.00;98815.81;4965154;28;20409;-82
2023/12/08 06:41:04;;;;;;;;;;;;;;;5.92;100.00;98798.28;4947015;28;20422;-82
2023/12/08 06:43:30;;;;;;;;;;;;;;;5.92;100.00;98798.28;4946620;28;20326;-82
2023/12/08 06:45:55;;;;;;;;;;;;;;;5.91;100.00;98804.44;4948331;28;19929;-82
2023/12/08 06:48:23;;;;;;;;;;;;;;;5.91;100.00;98803.59;4965326;28;19918;-82
2023/12/08 06:50:48;;;;;;;;;;;;;;;5.92;100.00;98797.41;4965079;28;20286;-82
2023/12/08 06:53:14;;;;;;;;;;;;;;;5.88;100.00;98794.03;4965507;28;19918;-81
2023/12/08 06:55:39;;;;;;;;;;;;;;;5.91;100.00;98803.59;4947917;28;19970;-82
2023/12/08 06:58:04;;;;;;;;;;;;;;;5.92;100.00;98806.16;4961901;28;19918;-82
2023/12/08 07:00:29;;;;;;;;;;;;;;;5.93;100.00;98810.50;4963553;28;19929;-82
2023/12/08 07:02:55;;;;;;;;;;;;;;;5.93;100.00;98814.91;4965209;28;20283;-81
2023/12/08 07:05:20;;;;;;;;;;;;;;;5.92;100.00;98821.94;4965218;28;19977;-81
2023/12/08 07:07:46;;;;;;;;;;;;;;;5.92;100.00;98816.69;4963747;28;20016;-87
2023/12/08 07:10:12;;;;;;;;;;;;;;;5.93;100.00;98821.00;4964709;28;20428;-82
2023/12/08 07:12:37;;;;;;;;;;;;;;;5.92;100.00;98821.94;4947737;28;19922;-82
2023/12/08 07:15:03;;;;;;;;;;;;;;;5.94;100.00;98814.00;4945844;28;19926;-82
2023/12/08 07:17:28;;;;;;;;;;;;;;;5.94;100.00;98821.88;4947233;28;19922;-82
2023/12/08 07:19:54;;;;;;;;;;;;;;;5.96;100.00;98826.19;4964340;28;19949;-82
2023/12/08 07:22:19;;;;;;;;;;;;;;;5.95;100.00;98834.97;4964638;28;19922;-83
2023/12/08 07:24:44;;;;;;;;;;;;;;;5.95;100.00;98827.09;4964653;28;19925;-82
2023/12/08 07:27:09;;;;;;;;;;;;;;;5.97;100.00;98830.53;4964136;28;19923;-82
2023/12/08 07:29:35;;;;;;;;;;;;;;;5.95;100.00;98827.09;4945653;28;19995;-82
2023/12/08 07:32:00;;;;;;;;;;;;;;;5.98;100.00;98829.63;4964357;28;19929;-82
2023/12/08 07:34:25;;;;;;;;;;;;;;;5.98;100.00;98836.63;4946751;28;19989;-82
2023/12/08 07:36:50;;;;;;;;;;;;;;;5.99;100.00;98831.31;4964460;28;19929;-81
2023/12/08 07:39:15;;;;;;;;;;;;;;;5.99;100.00;98839.22;4964206;28;19918;-81
2023/12/08 07:41:42;;;;;;;;;;;;;;;5.99;100.00;98847.09;4947166;28;19922;-83
2023/12/08 07:44:08;;;;;;;;;;;;;;;5.99;100.00;98847.09;4963019;28;19941;-81
2023/12/08 07:46:33;;;;;;;;;;;;;;;6.00;100.00;98855.88;4947040;28;20381;-82
2023/12/08 07:48:58;;;;;;;;;;;;;;;6.02;100.00;98861.06;4963859;28;20377;-81
2023/12/08 07:51:23;;;;;;;;;;;;;;;5.99;100.00;98857.63;4946756;28;19965;-81
2023/12/08 07:53:49;;;;;;;;;;;;;;;5.98;100.00;98861.19;4947035;28;19918;-81
2023/12/08 07:56:14;;;;;;;;;;;;;;;5.99;100.00;98862.03;4946976;28;19930;-84
2023/12/08 07:58:39;;;;;;;;;;;;;;;6.02;100.00;98863.69;4959327;28;19919;-82
2023/12/08 08:50:22;;;;;;;;;;;;;;;6.09;100.00;98891.47;5040812;23;20361;-81
2023/12/08 08:52:48;;;;;;;;;;;;;;;6.08;100.00;98885.34;4977288;28;19973;-84
2023/12/08 08:55:13;;;;;;;;;;;;;;;6.08;100.00;98885.34;4975698;28;19925;-81
2023/12/08 08:57:38;;;;;;;;;;;;;;;6.08;100.00;98890.63;4976768;28;19926;-81
2023/12/08 09:00:04;;;;;;;;;;;;;;;6.09;100.00;98892.31;4976933;28;20361;-81
2023/12/08 09:02:29;;;;;;;;;;;;;;;6.10;100.00;98894.03;4975677;28;20300;-82
2023/12/08 09:04:55;;;;;;;;;;;;;;;6.08;100.00;98884.47;4975587;28;19989;-81
2023/12/08 09:07:20;;;;;;;;;;;;;;;6.08;100.00;98887.97;4975356;28;19925;-80
2023/12/08 09:09:45;;;;;;;;;;;;;;;6.10;100.00;98885.28;4976739;28;19925;-81
2023/12/08 09:12:10;;;;;;;;;;;;;;;6.11;100.00;98881.72;4976662;28;19918;-81
2023/12/08 09:14:38;;;;;;;;;;;;;;;6.12;100.00;98886.09;4975338;28;19930;-84
2023/12/08 09:17:05;;;;;;;;;;;;;;;6.10;100.00;98885.28;4976730;28;19918;-81
2023/12/08 09:19:31;;;;;;;;;;;;;;;6.10;100.00;98893.19;4975205;28;19918;-81
2023/12/08 09:21:56;;;;;;;;;;;;;;;6.09;100.00;98891.47;4976606;28;19925;-81
2023/12/08 09:24:21;;;;;;;;;;;;;;;6.11;100.00;98889.63;4975104;28;19918;-81
2023/12/08 09:26:46;;;;;;;;;;;;;;;6.12;100.00;98893.97;4976348;28;19945;-81
2023/12/08 09:29:11;;;;;;;;;;;;;;;6.13;100.00;98893.06;4976329;28;19917;-81
2023/12/08 09:31:37;;;;;;;;;;;;;;;6.13;100.00;98886.03;4976370;28;20024;-88
2023/12/08 09:34:02;;;;;;;;;;;;;;;6.13;100.00;98890.44;4974922;28;19969;-81
2023/12/08 09:36:27;;;;;;;;;;;;;;;6.14;100.00;98892.13;4976251;28;19961;-81
2023/12/08 09:38:52;;;;;;;;;;;;;;;6.14;100.00;98894.75;4976243;28;19918;-81
2023/12/08 09:41:18;;;;;;;;;;;;;;;6.15;100.00;98893.84;4974841;28;20297;-81
2023/12/08 09:43:49;;;;;;;;;;;;;;;6.17;100.00;98905.16;4976054;28;20289;-81
2023/12/08 09:46:15;;;;;;;;;;;;;;;6.16;100.00;98906.09;4975980;28;19925;-79
2023/12/08 09:48:43;;;;;;;;;;;;;;;6.17;100.00;98894.66;4974564;28;19922;-83
2023/12/08 09:51:09;;;;;;;;;;;;;;;6.16;100.00;98899.06;4974458;28;20029;-82
2023/12/08 09:53:36;;;;;;;;;;;;;;;5.36;100.00;98895.88;4975579;28;20017;-81
2023/12/08 09:56:02;;;;;;;;;;;;;;;4.40;100.00;98901.69;4975680;28;19922;-81
2023/12/08 09:58:28;;;;;;;;;;;;;;;4.02;100.00;98910.75;4975859;28;19924;-81
2023/12/08 10:00:55;;;;;;;;;;;;;;;3.78;100.00;98921.06;4975852;28;19922;-81
2023/12/08 10:03:20;;;;;;;;;;;;;;;3.66;100.00;98916.19;4972551;28;20144;-82
2023/12/08 10:05:45;;;;;;;;;;;;;;;3.54;100.00;98927.84;4975554;28;19922;-83
2023/12/08 10:08:12;;;;;;;;;;;;;;;3.45;100.00;98931.59;4975779;28;19945;-83
2023/12/08 10:10:37;;;;;;;;;;;;;;;3.34;100.00;98933.66;4975245;28;20004;-83
2023/12/08 10:13:03;;;;;;;;;;;;;;;3.21;100.00;98936.59;4975603;28;19980;-84
2023/12/08 10:15:28;;;;;;;;;;;;;;;3.20;100.00;98936.63;4974387;28;19922;-84
2023/12/08 10:17:53;;;;;;;;;;;;;;;3.17;100.00;98939.34;4975471;28;19918;-82
2023/12/08 10:20:19;;;;;;;;;;;;;;;3.11;100.00;98944.72;4974197;28;19930;-80
2023/12/08 10:22:55;;;;;;;;;;;;;;;3.02;100.00;98941.44;4973921;28;19969;-82
2023/12/08 10:25:21;;;;;;;;;;;;;;;2.96;100.00;98936.38;4975437;28;20285;-81
2023/12/08 10:27:49;;;;;;;;;;;;;;;2.98;100.00;98934.56;4975127;28;20288;-81
2023/12/08 10:30:15;;;;;;;;;;;;;;;3.07;100.00;98946.56;4975287;28;20374;-84
2023/12/08 10:32:40;;;;;;;;;;;;;;;3.05;100.00;98941.38;4973841;28;19982;-84
2023/12/08 10:35:06;;;;;;;;;;;;;;;3.08;100.00;98941.28;4974008;28;20358;-83
2023/12/08 10:37:31;;;;;;;;;;;;;;;3.07;100.00;98938.72;4972841;28;19972;-83
2023/12/08 10:39:56;;;;;;;;;;;;;;;3.05;100.00;98936.13;4975123;28;19972;-83
2023/12/08 10:42:23;;;;;;;;;;;;;;;3.07;100.00;98928.25;4974328;28;19925;-81
2023/12/08 10:44:48;;;;;;;;;;;;;;;3.05;100.00;98932.66;4973686;28;19922;-80
2023/12/08 10:47:14;;;;;;;;;;;;;;;3.04;100.00;98944.03;4973714;28;19928;-83
2023/12/08 10:49:40;;;;;;;;;;;;;;;3.01;100.00;98947.56;4972218;28;20270;-82
2023/12/08 10:52:05;;;;;;;;;;;;;;;3.07;100.00;98947.41;4972924;28;19925;-80
2023/12/08 10:54:31;;;;;;;;;;;;;;;3.03;100.00;98940.56;4974840;28;19976;-81
2023/12/08 10:56:57;;;;;;;;;;;;;;;3.04;100.00;98937.03;4974646;28;19922;-80
2023/12/08 10:59:24;;;;;;;;;;;;;;;3.02;100.00;98930.13;4974775;28;20018;-81
2023/12/08 11:01:51;;;;;;;;;;;;;;;2.96;100.00;98931.13;4974506;28;19922;-82
2023/12/08 11:04:19;;;;;;;;;;;;;;;2.97;100.00;98932.88;4973483;28;19972;-81
2023/12/08 11:06:56;;;;;;;;;;;;;;;2.96;100.00;98933.75;4963996;28;19941;-81
2023/12/08 11:09:23;;;;;;;;;;;;;;;2.95;100.00;98928.56;4972949;28;20087;-80
2023/12/08 11:11:53;;;;;;;;;;;;;;;2.95;100.00;98931.16;4973170;28;20377;-82
2023/12/08 11:14:24;;;;;;;;;;;;;;;2.86;100.00;98937.50;4964906;28;19918;-80
2023/12/08 11:17:01;;;;;;;;;;;;;;;2.88;100.00;98933.09;4964727;28;19925;-80
2023/12/08 11:19:28;;;;;;;;;;;;;;;2.83;100.00;98937.59;4966760;28;19922;-80
2023/12/08 11:21:54;;;;;;;;;;;;;;;3.21;100.00;98941.00;4974125;28;20064;-81
2023/12/08 11:24:20;;;;;;;;;;;;;;;3.80;100.00;98941.09;4974253;28;20045;-81
2023/12/08 11:26:52;;;;;;;;;;;;;;;4.09;100.00;98946.38;4973875;28;19988;-80
2023/12/08 11:29:27;;;;;;;;;;;;;;;4.25;100.00;98952.03;4972210;28;19957;-82
2023/12/08 11:32:10;;;;;;;;;;;;;;;4.35;100.00;98953.47;4972457;28;20273;-82
2023/12/08 11:34:42;;;;;;;;;;;;;;;4.44;100.00;98958.41;4971617;28;19918;-80
2023/12/08 11:37:08;;;;;;;;;;;;;;;4.49;100.00;98951.25;4972175;28;20036;-80
2023/12/08 11:39:33;;;;;;;;;;;;;;;4.59;100.00;98948.34;4972609;28;20018;-80
2023/12/08 11:41:58;;;;;;;;;;;;;;;4.63;100.00;98950.84;4973949;28;20274;-80
2023/12/08 11:44:24;;;;;;;;;;;;;;;4.70;100.00;98948.88;4973841;28;19954;-80
2023/12/08 11:46:54;;;;;;;;;;;;;;;4.79;100.00;98958.22;4973801;28;20004;-80
2023/12/08 11:49:19;;;;;;;;;;;;;;;4.91;100.00;98953.44;4971838;28;19929;-80
2023/12/08 11:52:03;;;;;;;;;;;;;;;5.07;100.00;98958.16;4973509;28;19918;-80
2023/12/08 11:54:28;;;;;;;;;;;;;;;5.22;100.00;98965.53;4973886;28;19930;-80
2023/12/08 11:56:54;;;;;;;;;;;;;;;5.39;100.00;98964.06;4973482;28;20399;-80
2023/12/08 11:59:21;;;;;;;;;;;;;;;5.52;100.00;98960.13;4972590;28;19954;-81
2023/12/08 12:01:47;;;;;;;;;;;;;;;5.62;100.00;98965.91;4964166;28;19918;-80
2023/12/08 12:04:12;;;;;;;;;;;;;;;5.73;100.00;98969.00;4972382;28;19938;-80
2023/12/08 12:06:38;;;;;;;;;;;;;;;5.83;100.00;98970.38;4973714;28;20301;-80
2023/12/08 12:09:04;;;;;;;;;;;;;;;5.90;100.00;98971.00;4973353;28;20009;-80
2023/12/08 12:11:32;;;;;;;;;;;;;;;5.98;100.00;98973.38;4967784;28;20487;-79
2023/12/08 12:13:58;;;;;;;;;;;;;;;6.06;100.00;98978.38;4973421;28;20009;-80
2023/12/08 12:16:24;;;;;;;;;;;;;;;6.13;100.00;98978.09;4973535;28;19922;-81
2023/12/08 12:18:50;;;;;;;;;;;;;;;6.20;100.00;98980.50;4970011;28;19925;-80
2023/12/08 12:21:15;;;;;;;;;;;;;;;6.24;100.00;98971.53;4973125;28;19918;-80
2023/12/08 12:23:44;;;;;;;;;;;;;;;6.30;100.00;98977.47;4973378;28;19930;-81
2023/12/08 12:26:13;;;;;;;;;;;;;;;6.33;100.00;98979.97;4972024;28;19973;-82
2023/12/08 12:28:38;;;;;;;;;;;;;;;6.38;100.00;98976.28;4971975;28;19977;-81
2023/12/08 12:31:03;;;;;;;;;;;;;;;6.41;100.00;98981.44;4971967;28;19922;-80
2023/12/08 12:33:29;;;;;;;;;;;;;;;5.49;100.00;98985.63;4971997;28;19919;-81
2023/12/08 12:35:54;;;;;;;;;;;;;;;4.99;100.00;98978.56;4971903;28;19919;-81
2023/12/08 12:38:23;;;;;;;;;;;;;;;4.68;100.00;98982.19;4972275;28;19918;-81
2023/12/08 12:40:51;;;;;;;;;;;;;;;4.63;100.00;98978.84;4973305;28;19925;-81
2023/12/08 12:43:17;;;;;;;;;;;;;;;4.50;100.00;98976.59;4973253;28;19918;-83
2023/12/08 12:45:42;;;;;;;;;;;;;;;4.37;100.00;98977.88;4973209;28;19921;-81
2023/12/08 12:48:08;;;;;;;;;;;;;;;4.35;100.00;98974.44;4971891;28;19918;-83
2023/12/08 12:50:46;;;;;;;;;;;;;;;4.23;100.00;98980.03;4972973;28;19964;-81
2023/12/08 12:53:11;;;;;;;;;;;;;;;4.11;100.00;98987.38;4972911;28;19973;-80
2023/12/08 12:55:36;;;;;;;;;;;;;;;4.09;100.00;98981.31;4973027;28;19918;-81
2023/12/08 12:58:02;;;;;;;;;;;;;;;3.97;100.00;98992.16;4972757;28;19981;-81
2023/12/08 13:00:39;;;;;;;;;;;;;;;3.97;100.00;98995.66;4973102;28;20285;-81
2023/12/08 13:03:12;;;;;;;;;;;;;;;4.07;100.00;98990.13;4971682;28;19922;-80
2023/12/08 13:06:06;;;;;;;;;;;;;;;3.92;100.00;98996.69;4973300;28;19972;-81
2023/12/08 13:08:40;;;;;;;;;;;;;;;3.84;100.00;99003.91;4970592;28;19918;-83
2023/12/08 13:11:06;;;;;;;;;;;;;;;3.80;100.00;99003.97;4963237;28;20313;-81
2023/12/08 13:13:32;;;;;;;;;;;;;;;3.81;100.00;99012.69;4973191;28;19957;-81
2023/12/08 13:16:00;;;;;;;;;;;;;;;3.79;100.00;99010.13;4971316;28;20378;-81
2023/12/08 13:18:25;;;;;;;;;;;;;;;3.73;100.00;99014.66;4971331;28;19930;-80
2023/12/08 13:20:50;;;;;;;;;;;;;;;3.69;100.00;99016.53;4972774;28;20274;-81
2023/12/08 13:23:16;;;;;;;;;;;;;;;3.71;100.00;99022.56;4972939;28;19922;-82
2023/12/08 13:25:41;;;;;;;;;;;;;;;3.80;100.00;99011.84;4972594;28;19925;-81
2023/12/08 13:28:06;;;;;;;;;;;;;;;3.73;100.00;99027.78;4972523;28;19922;-81
2023/12/08 13:30:31;;;;;;;;;;;;;;;3.72;100.00;99029.53;4974850;28;19925;-81
2023/12/08 13:32:57;;;;;;;;;;;;;;;3.69;100.00;99032.25;4974751;28;19922;-83
2023/12/08 13:35:22;;;;;;;;;;;;;;;3.73;100.00;99040.88;4974775;28;20403;-85
2023/12/08 13:37:47;;;;;;;;;;;;;;;3.61;100.00;99039.44;4975956;28;19925;-80
2023/12/08 13:40:13;;;;;;;;;;;;;;;3.65;100.00;99038.44;4976354;28;20013;-84
2023/12/08 13:42:39;;;;;;;;;;;;;;;3.60;100.00;99040.34;4974972;28;20327;-85
2023/12/08 13:45:05;;;;;;;;;;;;;;;3.59;100.00;99038.63;4975719;28;20016;-81
2023/12/08 13:47:30;;;;;;;;;;;;;;;3.72;100.00;99047.00;4975837;28;19922;-81
2023/12/08 13:49:56;;;;;;;;;;;;;;;3.69;100.00;99044.50;4973764;28;20385;-81
2023/12/08 13:52:21;;;;;;;;;;;;;;;3.63;100.00;99040.25;4974586;28;19918;-80
2023/12/08 13:54:46;;;;;;;;;;;;;;;3.56;100.00;99044.81;4975694;28;19969;-81
2023/12/08 13:57:11;;;;;;;;;;;;;;;3.58;100.00;99044.78;4975741;28;19970;-81
2023/12/08 13:59:36;;;;;;;;;;;;;;;3.72;100.00;99053.13;4975971;28;19995;-80
2023/12/08 14:02:02;;;;;;;;;;;;;;;3.64;100.00;99049.84;4975370;28;20307;-80
2023/12/08 14:04:27;;;;;;;;;;;;;;;3.70;100.00;99048.81;4972982;28;19922;-80
2023/12/08 14:06:52;;;;;;;;;;;;;;;3.66;100.00;99053.28;4974360;28;20062;-80
2023/12/08 14:09:18;;;;;;;;;;;;;;;3.63;100.00;99053.38;4975604;28;19965;-81
2023/12/08 14:11:43;;;;;;;;;;;;;;;3.65;100.00;99056.78;4975431;28;19918;-81
2023/12/08 14:14:09;;;;;;;;;;;;;;;3.65;100.00;99059.41;4975400;28;20301;-82
2023/12/08 14:16:34;;;;;;;;;;;;;;;3.64;100.00;99065.56;4974104;28;20386;-80
2023/12/08 14:18:59;;;;;;;;;;;;;;;3.70;100.00;99067.16;4974078;28;20013;-80
2023/12/08 14:21:25;;;;;;;;;;;;;;;3.67;100.00;99068.13;4973933;28;19922;-80
2023/12/08 14:23:50;;;;;;;;;;;;;;;3.69;100.00;99066.31;4975291;28;19968;-81
2023/12/08 14:26:15;;;;;;;;;;;;;;;3.71;100.00;99072.34;4975417;28;19918;-83
2023/12/08 14:28:40;;;;;;;;;;;;;;;3.72;100.00;99066.22;4973887;28;19929;-80
2023/12/08 14:31:05;;;;;;;;;;;;;;;3.75;100.00;99068.78;4974851;28;20393;-81
2023/12/08 14:33:32;;;;;;;;;;;;;;;3.71;100.00;99074.13;4973889;28;19992;-81
2023/12/08 14:35:57;;;;;;;;;;;;;;;3.68;100.00;99072.44;4974925;28;19965;-81
2023/12/08 14:38:22;;;;;;;;;;;;;;;3.70;100.00;99077.63;4974920;28;19965;-81
2023/12/08 14:40:48;;;;;;;;;;;;;;;3.67;100.00;99085.56;4974449;28;19988;-81
2023/12/08 14:43:14;;;;;;;;;;;;;;;3.66;100.00;99084.72;4974753;28;20009;-81
2023/12/08 14:45:39;;;;;;;;;;;;;;;3.71;100.00;99095.09;4974860;28;20057;-81
2023/12/08 14:48:04;;;;;;;;;;;;;;;3.67;100.00;99094.31;4974356;28;20320;-81
2023/12/08 14:50:30;;;;;;;;;;;;;;;3.69;100.00;99095.13;4973823;28;19922;-80
2023/12/08 14:52:55;;;;;;;;;;;;;;;3.68;100.00;99103.88;4974822;28;19929;-82
2023/12/08 14:55:20;;;;;;;;;;;;;;;3.69;100.00;99104.75;4974803;28;19918;-81
2023/12/08 14:57:46;;;;;;;;;;;;;;;3.69;100.00;99110.00;4974511;28;20361;-81
2023/12/08 15:00:11;;;;;;;;;;;;;;;3.65;100.00;99109.19;4974489;28;19918;-81
2023/12/08 15:02:37;;;;;;;;;;;;;;;3.63;100.00;99114.47;4974658;28;20328;-81
2023/12/08 15:05:03;;;;;;;;;;;;;;;3.63;100.00;99117.09;4971903;28;20013;-82
2023/12/08 15:07:28;;;;;;;;;;;;;;;3.65;100.00;99111.81;4972911;28;19918;-81
2023/12/08 15:09:53;;;;;;;;;;;;;;;3.66;100.00;99120.56;4973016;28;19922;-81
2023/12/08 15:12:18;;;;;;;;;;;;;;;4.93;100.00;99124.03;4973099;28;19922;-85
2023/12/08 15:14:43;;;;;;;;;;;;;;;4.03;100.00;99123.06;4973154;28;19926;-84
2023/12/08 15:17:09;;;;;;;;;;;;;;;3.80;100.00;99129.78;4973934;28;20361;-85
2023/12/08 15:19:34;;;;;;;;;;;;;;;3.73;100.00;99128.19;4971827;28;19926;-83
2023/12/08 15:22:02;;;;;;;;;;;;;;;3.71;100.00;99127.38;4974234;28;19969;-85
2023/12/08 15:24:27;;;;;;;;;;;;;;;3.66;100.00;99125.78;4974082;28;20001;-85
2023/12/08 15:26:52;;;;;;;;;;;;;;;3.69;100.00;99136.19;4974041;28;20433;-85
2023/12/08 15:29:18;;;;;;;;;;;;;;;3.69;100.00;99134.44;4974053;28;19960;-81
2023/12/08 15:31:43;;;;;;;;;;;;;;;3.69;100.00;99136.19;4974101;28;20421;-83
2023/12/08 15:34:08;;;;;;;;;;;;;;;3.63;100.00;99137.19;4972425;28;19926;-81
2023/12/08 15:36:33;;;;;;;;;;;;;;;3.67;100.00;99131.00;4973924;28;19925;-84
2023/12/08 15:38:59;;;;;;;;;;;;;;;3.59;100.00;99127.69;4973763;28;19925;-82
2023/12/08 15:41:24;;;;;;;;;;;;;;;3.66;100.00;99131.88;4974032;28;20013;-82
2023/12/08 15:43:50;;;;;;;;;;;;;;;3.67;100.00;99128.38;4972362;28;19996;-82
2023/12/08 15:46:15;;;;;;;;;;;;;;;3.69;100.00;99129.19;4973365;28;19922;-84
2023/12/08 15:48:40;;;;;;;;;;;;;;;3.66;100.00;99131.03;4972468;28;20361;-82
2023/12/08 15:51:09;;;;;;;;;;;;;;;3.67;100.00;99135.34;4973425;28;19926;-81
2023/12/08 15:53:34;;;;;;;;;;;;;;;3.68;100.00;99131.84;4971300;28;19918;-82
2023/12/08 15:56:00;;;;;;;;;;;;;;;3.64;100.00;99133.69;4973473;28;19922;-84
2023/12/08 15:58:25;;;;;;;;;;;;;;;3.66;100.00;99131.88;4973851;28;19922;-87
2023/12/08 16:00:52;;;;;;;;;;;;;;;3.67;100.00;99141.47;4972165;28;19925;-86
2023/12/08 16:03:17;;;;;;;;;;;;;;;3.68;100.00;99142.34;4970649;28;19929;-82
2023/12/08 16:05:42;;;;;;;;;;;;;;;3.71;100.00;99150.97;4973467;28;19918;-85
2023/12/08 16:08:08;;;;;;;;;;;;;;;3.70;100.00;99153.63;4973330;28;20366;-82
2023/12/08 16:10:33;;;;;;;;;;;;;;;6.35;100.00;99157.06;4972103;28;19918;-82
2023/12/08 16:12:58;;;;;;;;;;;;;;;4.43;100.00;99168.34;4973263;28;19930;-81
2023/12/08 16:15:23;;;;;;;;;;;;;;;4.03;100.00;99162.41;4973200;28;19922;-81
2023/12/08 16:17:49;;;;;;;;;;;;;;;3.92;100.00;99164.44;4973422;28;20373;-82
2023/12/08 16:20:14;;;;;;;;;;;;;;;3.95;100.00;99166.97;4971765;28;19945;-81
2023/12/08 16:22:39;;;;;;;;;;;;;;;3.90;100.00;99171.47;4972035;28;19985;-82
2023/12/08 16:25:05;;;;;;;;;;;;;;;4.59;100.00;99169.63;4972971;28;19920;-82
2023/12/08 16:27:30;;;;;;;;;;;;;;;3.99;100.00;99171.25;4971285;28;19954;-82
2023/12/08 16:29:55;;;;;;;;;;;;;;;3.92;100.00;99180.16;4969857;28;19930;-83
2023/12/08 16:32:21;;;;;;;;;;;;;;;3.84;100.00;99172.47;4973025;28;19953;-85
2023/12/08 16:34:46;;;;;;;;;;;;;;;3.82;100.00;99177.75;4970801;28;19965;-87
2023/12/08 16:37:11;;;;;;;;;;;;;;;3.79;100.00;99179.59;4972937;28;19918;-85
2023/12/08 16:39:37;;;;;;;;;;;;;;;3.81;100.00;99183.03;4970881;28;19928;-84
2023/12/08 16:42:02;;;;;;;;;;;;;;;3.79;100.00;99185.69;4971431;28;20354;-81
2023/12/08 16:44:29;;;;;;;;;;;;;;;3.79;100.00;99193.56;4973256;28;20374;-87
2023/12/08 16:46:54;;;;;;;;;;;;;;;3.75;100.00;99189.31;4972849;28;19918;-85
2023/12/08 16:49:19;;;;;;;;;;;;;;;3.75;100.00;99191.94;4971633;28;19929;-82
2023/12/08 16:51:45;;;;;;;;;;;;;;;3.76;100.00;99196.25;4970719;28;19922;-85
2023/12/08 16:54:10;;;;;;;;;;;;;;;3.75;100.00;99199.78;4970864;28;19926;-88
2023/12/08 16:56:35;;;;;;;;;;;;;;;3.75;100.00;99197.19;4972009;28;19918;-82
2023/12/08 16:59:01;;;;;;;;;;;;;;;3.73;100.00;99191.09;4971801;28;20020;-83
2023/12/08 17:01:26;;;;;;;;;;;;;;;3.78;100.00;99190.97;4971457;28;19918;-82
2023/12/08 17:03:51;;;;;;;;;;;;;;;3.76;100.00;99201.50;4970419;28;19929;-82
2023/12/08 17:06:17;;;;;;;;;;;;;;;3.80;100.00;99197.91;4976037;28;19925;-83
2023/12/08 17:08:43;;;;;;;;;;;;;;;3.80;100.00;99202.31;4971810;28;19926;-81
2023/12/08 17:11:12;;;;;;;;;;;;;;;3.79;100.00;99206.66;4972342;28;19926;-81
2023/12/08 17:13:37;;;;;;;;;;;;;;;3.79;100.00;99200.56;4973758;28;19929;-82
2023/12/08 17:16:03;;;;;;;;;;;;;;;3.77;100.00;99203.22;4971329;28;19926;-83
2023/12/08 17:18:29;;;;;;;;;;;;;;;3.83;100.00;99204.84;4969612;28;19988;-82
2023/12/08 17:20:54;;;;;;;;;;;;;;;3.79;100.00;99211.91;4972719;28;20016;-82
2023/12/08 17:23:19;;;;;;;;;;;;;;;3.77;100.00;99208.47;4975311;28;19954;-82
2023/12/08 17:25:44;;;;;;;;;;;;;;;3.79;100.00;99214.53;4976154;28;19919;-81
2023/12/08 17:28:09;;;;;;;;;;;;;;;3.75;100.00;99212.91;4974946;28;20033;-79
2023/12/08 17:30:35;;;;;;;;;;;;;;;3.81;100.00;99222.34;4974491;28;20277;-83
2023/12/08 17:33:00;;;;;;;;;;;;;;;3.80;100.00;99218.88;4975988;28;19964;-87
2023/12/08 17:35:25;;;;;;;;;;;;;;;3.76;100.00;99219.84;4969131;28;20373;-84
2023/12/08 17:37:51;;;;;;;;;;;;;;;3.73;100.00;99221.69;4976222;28;19966;-83
2023/12/08 17:40:16;;;;;;;;;;;;;;;3.82;100.00;99226.72;4973872;28;19918;-82
2023/12/08 17:42:41;;;;;;;;;;;;;;;3.80;100.00;99224.13;4957548;28;20016;-82
2023/12/08 17:45:07;;;;;;;;;;;;;;;3.79;100.00;99232.03;4975769;28;19981;-81
2023/12/08 17:47:32;;;;;;;;;;;;;;;3.86;100.00;99228.38;4975019;28;19930;-82
2023/12/08 17:49:58;;;;;;;;;;;;;;;3.83;100.00;99233.69;4973162;28;19932;-83
2023/12/08 17:52:23;;;;;;;;;;;;;;;3.85;100.00;99237.13;4975726;28;19918;-82
2023/12/08 17:54:53;;;;;;;;;;;;;;;3.86;100.00;99243.22;4974761;28;19932;-84
2023/12/08 17:57:19;;;;;;;;;;;;;;;3.84;100.00;99240.63;4973993;28;19937;-82
2023/12/08 17:59:44;;;;;;;;;;;;;;;3.86;100.00;99245.84;4974334;28;19926;-81
2023/12/08 18:02:10;;;;;;;;;;;;;;;3.88;100.00;99249.28;4973880;28;19941;-81
2023/12/08 18:04:39;;;;;;;;;;;;;;;3.88;100.00;99249.28;4972420;28;19933;-86
2023/12/08 18:07:05;;;;;;;;;;;;;;;3.87;100.00;99251.03;4974427;28;19948;-80
2023/12/08 18:09:30;;;;;;;;;;;;;;;3.86;100.00;99254.59;4972984;28;19969;-82
2023/12/08 18:11:56;;;;;;;;;;;;;;;3.82;100.00;99251.16;4973295;28;19949;-82
2023/12/08 18:14:21;;;;;;;;;;;;;;;4.10;100.00;99253.13;4955483;28;19922;-84
2023/12/08 18:16:47;;;;;;;;;;;;;;;3.99;100.00;99249.91;4954234;28;19945;-83
2023/12/08 18:19:12;;;;;;;;;;;;;;;3.98;100.00;99251.63;4952258;28;19922;-85
2023/12/08 18:21:37;;;;;;;;;;;;;;;4.01;100.00;99253.34;4954009;29;20013;-81
2023/12/08 18:24:06;;;;;;;;;;;;;;;3.95;100.00;99250.88;4954894;28;20034;-82
2023/12/08 18:26:32;;;;;;;;;;;;;;;3.96;100.00;99249.97;4953468;28;19941;-81
2023/12/08 18:28:58;;;;;;;;;;;;;;;3.99;100.00;99252.53;4954858;28;19933;-84